sensor_id;sensor_type;location;lat;lon;timestamp;pressure;altitude;pressure_sealevel;temperature;humidity
2000;BME280;1001;48.87406500;9.59633600;2023-02-24T00:00:57;94609.06;;;9.07;100.00
2000;BME280;1001;48.87406500;9.59633600;2023-02-24T00:03:27;94603.66;;;9.08;100.00
2000;BME280;1001;48.87406500;9.59633600;2023-02-24T00:05:54;94603.53;;;9.03;100.00
2000;BME280;1001;48.87406500;9.59633600;2023-02-24T00:08:20;94596.53;;;9.04;100.00
2000;BME280;1001;48.87406500;9.59633600;2023-02-24T00:10:47;94593.31;;;9.02;100.00
2000;BME280;1001;48.87406500;9.59633600;2023-02-24T00:13:14;94596.19;;;9.00;100.00
2000;BME280;1001;48.87406500;9.59633600;2023-02-24T00:15:58;94593.31;;;9.02;100.00
2000;BME280;1001;48.87406500;9.59633600;2023-02-24T00:18:26;94590.13;;;9.11;100.00
2000;BME280;1001;48.87406500;9.59633600;2023-02-24T00:20:52;94596.84;;;9.07;100.00
2000;BME280;1001;48.87406500;9.59633600;2023-02-24T00:23:22;94592.97;;;9.10;100.00
2000;BME280;1001;48.87406500;9.59633600;2023-02-24T00:25:49;94596.59;;;9.09;100.00
2000;BME280;1001;48.87406500;9.59633600;2023-02-24T00:28:24;94591.19;;;8.99;100.00
2000;BME280;1001;48.87406500;9.59633600;2023-02-24T00:30:50;94587.34;;;9.01;100.00
2000;BME280;1001;48.87406500;9.59633600;2023-02-24T00:33:18;94579.38;;;9.08;100.00
2000;BME280;1001;48.87406500;9.59633600;2023-02-24T00:35:48;94580.38;;;9.07;100.00
2000;BME280;1001;48.87406500;9.59633600;2023-02-24T00:38:15;94573.50;;;9.01;100.00
2000;BME280;1001;48.87406500;9.59633600;2023-02-24T00:40:42;94576.13;;;9.01;100.00
2000;BME280;1001;48.87406500;9.59633600;2023-02-24T00:43:10;94568.97;;;8.96;100.00
2000;BME280;1001;48.87406500;9.59633600;2023-02-24T00:45:37;94565.91;;;8.99;100.00
2000;BME280;1001;48.87406500;9.59633600;2023-02-24T00:48:03;94561.72;;;8.98;100.00
2000;BME280;1001;48.87406500;9.59633600;2023-02-24T00:50:31;94570.91;;;9.01;100.00
2000;BME280;1001;48.87406500;9.59633600;2023-02-24T00:52:59;94569.09;;;9.01;100.00
2000;BME280;1001;48.87406500;9.59633600;2023-02-24T00:55:26;94569.84;;;9.13;100.00
2000;BME280;1001;48.87406500;9.59633600;2023-02-24T00:58:00;94565.03;;;9.22;100.00
2000;BME280;1001;48.87406500;9.59633600;2023-02-24T01:00:27;94569.03;;;9.13;100.00
2000;BME280;1001;48.87406500;9.59633600;2023-02-24T01:02:54;94567.69;;;9.10;100.00
2000;BME280;1001;48.87406500;9.59633600;2023-02-24T01:05:23;94566.09;;;9.09;100.00
2000;BME280;1001;48.87406500;9.59633600;2023-02-24T01:07:53;94569.84;;;9.13;100.00
2000;BME280;1001;48.87406500;9.59633600;2023-02-24T01:10:20;94559.97;;;9.15;100.00
2000;BME280;1001;48.87406500;9.59633600;2023-02-24T01:12:47;94559.22;;;9.03;100.00
2000;BME280;1001;48.87406500;9.59633600;2023-02-24T01:15:20;94559.16;;;8.86;100.00
2000;BME280;1001;48.87406500;9.59633600;2023-02-24T01:17:47;94549.53;;;8.87;100.00
2000;BME280;1001;48.87406500;9.59633600;2023-02-24T01:20:14;94548.94;;;8.85;100.00
2000;BME280;1001;48.87406500;9.59633600;2023-02-24T01:22:43;94543.72;;;8.85;100.00
2000;BME280;1001;48.87406500;9.59633600;2023-02-24T01:25:11;94545.41;;;8.91;100.00
2000;BME280;1001;48.87406500;9.59633600;2023-02-24T01:27:38;94537.25;;;8.87;100.00
2000;BME280;1001;48.87406500;9.59633600;2023-02-24T01:30:06;94544.38;;;8.92;100.00
2000;BME280;1001;48.87406500;9.59633600;2023-02-24T01:32:38;94542.66;;;8.98;100.00
2000;BME280;1001;48.87406500;9.59633600;2023-02-24T01:35:05;94524.75;;;9.01;100.00
2000;BME280;1001;48.87406500;9.59633600;2023-02-24T01:37:32;94528.13;;;9.02;100.00
2000;BME280;1001;48.87406500;9.59633600;2023-02-24T01:39:59;94528.78;;;9.09;100.00
2000;BME280;1001;48.87406500;9.59633600;2023-02-24T01:42:32;94524.63;;;9.08;100.00
2000;BME280;1001;48.87406500;9.59633600;2023-02-24T01:45:13;94528.44;;;9.17;100.00
2000;BME280;1001;48.87406500;9.59633600;2023-02-24T01:47:40;94521.72;;;9.21;100.00
2000;BME280;1001;48.87406500;9.59633600;2023-02-24T01:50:08;94521.63;;;9.16;100.00
2000;BME280;1001;48.87406500;9.59633600;2023-02-24T01:52:39;94520.75;;;9.10;100.00
2000;BME280;1001;48.87406500;9.59633600;2023-02-24T01:55:13;94516.22;;;9.06;100.00
2000;BME280;1001;48.87406500;9.59633600;2023-02-24T01:57:46;94516.84;;;8.96;100.00
2000;BME280;1001;48.87406500;9.59633600;2023-02-24T02:00:15;94516.13;;;9.01;100.00
2000;BME280;1001;48.87406500;9.59633600;2023-02-24T02:02:59;94516.91;;;8.73;100.00
2000;BME280;1001;48.87406500;9.59633600;2023-02-24T02:05:28;94520.63;;;8.77;100.00
2000;BME280;1001;48.87406500;9.59633600;2023-02-24T02:07:54;94521.53;;;8.82;100.00
2000;BME280;1001;48.87406500;9.59633600;2023-02-24T02:10:21;94509.53;;;8.81;100.00
2000;BME280;1001;48.87406500;9.59633600;2023-02-24T02:12:50;94505.81;;;8.77;100.00
2000;BME280;1001;48.87406500;9.59633600;2023-02-24T02:15:17;94512.72;;;8.72;100.00
2000;BME280;1001;48.87406500;9.59633600;2023-02-24T02:17:50;94507.59;;;8.77;100.00
2000;BME280;1001;48.87406500;9.59633600;2023-02-24T02:23:55;94499.81;;;8.65;100.00
2000;BME280;1001;48.87406500;9.59633600;2023-02-24T02:32:39;94498.78;;;8.66;100.00
2000;BME280;1001;48.87406500;9.59633600;2023-02-24T02:35:19;94498.09;;;8.71;100.00
2000;BME280;1001;48.87406500;9.59633600;2023-02-24T02:37:51;94499.16;;;8.58;100.00
2000;BME280;1001;48.87406500;9.59633600;2023-02-24T02:40:24;94494.75;;;8.59;100.00
2000;BME280;1001;48.87406500;9.59633600;2023-02-24T02:42:56;94491.09;;;8.60;100.00
2000;BME280;1001;48.87406500;9.59633600;2023-02-24T02:45:28;94489.19;;;8.55;100.00
2000;BME280;1001;48.87406500;9.59633600;2023-02-24T02:48:00;94492.03;;;8.54;100.00
2000;BME280;1001;48.87406500;9.59633600;2023-02-24T02:50:36;94487.16;;;8.57;100.00
2000;BME280;1001;48.87406500;9.59633600;2023-02-24T02:53:11;94486.59;;;8.55;100.00
2000;BME280;1001;48.87406500;9.59633600;2023-02-24T02:55:44;94479.34;;;8.57;100.00
2000;BME280;1001;48.87406500;9.59633600;2023-02-24T02:58:15;94480.22;;;8.63;100.00
2000;BME280;1001;48.87406500;9.59633600;2023-02-24T03:00:47;94475.56;;;8.65;100.00
2000;BME280;1001;48.87406500;9.59633600;2023-02-24T03:03:28;94476.59;;;8.64;100.00
2000;BME280;1001;48.87406500;9.59633600;2023-02-24T03:06:01;94475.81;;;8.63;100.00
2000;BME280;1001;48.87406500;9.59633600;2023-02-24T03:08:33;94473.75;;;8.65;100.00
2000;BME280;1001;48.87406500;9.59633600;2023-02-24T03:11:03;94466.75;;;8.66;100.00
2000;BME280;1001;48.87406500;9.59633600;2023-02-24T03:13:36;94462.69;;;8.58;100.00
2000;BME280;1001;48.87406500;9.59633600;2023-02-24T03:16:06;94458.03;;;8.60;100.00
2000;BME280;1001;48.87406500;9.59633600;2023-02-24T03:18:37;94463.56;;;8.64;100.00
2000;BME280;1001;48.87406500;9.59633600;2023-02-24T03:21:07;94466.25;;;8.69;100.00
2000;BME280;1001;48.87406500;9.59633600;2023-02-24T03:23:39;94457.34;;;8.65;100.00
2000;BME280;1001;48.87406500;9.59633600;2023-02-24T03:26:10;94458.34;;;8.64;100.00
2000;BME280;1001;48.87406500;9.59633600;2023-02-24T03:28:47;94456.72;;;8.74;100.00
2000;BME280;1001;48.87406500;9.59633600;2023-02-24T03:31:21;94457.75;;;8.73;100.00
2000;BME280;1001;48.87406500;9.59633600;2023-02-24T03:33:56;94456.31;;;8.66;100.00
2000;BME280;1001;48.87406500;9.59633600;2023-02-24T03:36:29;94444.94;;;8.72;100.00
2000;BME280;1001;48.87406500;9.59633600;2023-02-24T03:38:56;94453.38;;;8.62;100.00
2000;BME280;1001;48.87406500;9.59633600;2023-02-24T03:41:27;94448.13;;;8.74;100.00
2000;BME280;1001;48.87406500;9.59633600;2023-02-24T03:43:57;94447.34;;;8.90;100.00
2000;BME280;1001;48.87406500;9.59633600;2023-02-24T03:46:25;94442.47;;;8.94;100.00
2000;BME280;1001;48.87406500;9.59633600;2023-02-24T03:49:07;94440.25;;;8.85;100.00
2000;BME280;1001;48.87406500;9.59633600;2023-02-24T03:51:42;94436.13;;;8.73;100.00
2000;BME280;1001;48.87406500;9.59633600;2023-02-24T03:54:21;94442.00;;;8.68;100.00
2000;BME280;1001;48.87406500;9.59633600;2023-02-24T03:57:02;94436.63;;;8.58;100.00
2000;BME280;1001;48.87406500;9.59633600;2023-02-24T03:59:49;94432.88;;;8.54;100.00
2000;BME280;1001;48.87406500;9.59633600;2023-02-24T04:02:22;94431.06;;;8.55;100.00
2000;BME280;1001;48.87406500;9.59633600;2023-02-24T04:04:56;94428.72;;;8.53;100.00
2000;BME280;1001;48.87406500;9.59633600;2023-02-24T04:07:36;94426.75;;;8.32;100.00
2000;BME280;1001;48.87406500;9.59633600;2023-02-24T04:10:08;94428.09;;;8.35;100.00
2000;BME280;1001;48.87406500;9.59633600;2023-02-24T04:12:41;94429.66;;;8.24;100.00
2000;BME280;1001;48.87406500;9.59633600;2023-02-24T04:15:16;94435.13;;;8.34;100.00
2000;BME280;1001;48.87406500;9.59633600;2023-02-24T04:17:46;94436.91;;;8.34;100.00
2000;BME280;1001;48.87406500;9.59633600;2023-02-24T04:20:15;94428.91;;;8.35;100.00
2000;BME280;1001;48.87406500;9.59633600;2023-02-24T04:22:47;94425.25;;;8.36;100.00
2000;BME280;1001;48.87406500;9.59633600;2023-02-24T04:25:16;94425.91;;;8.43;100.00
2000;BME280;1001;48.87406500;9.59633600;2023-02-24T04:27:44;94434.75;;;8.42;100.00
2000;BME280;1001;48.87406500;9.59633600;2023-02-24T04:30:12;94432.06;;;8.37;100.00
2000;BME280;1001;48.87406500;9.59633600;2023-02-24T04:32:39;94431.72;;;8.34;100.00
2000;BME280;1001;48.87406500;9.59633600;2023-02-24T04:35:11;94423.19;;;8.38;100.00
2000;BME280;1001;48.87406500;9.59633600;2023-02-24T04:37:38;94416.88;;;8.34;100.00
2000;BME280;1001;48.87406500;9.59633600;2023-02-24T04:40:12;94411.91;;;8.33;100.00
2000;BME280;1001;48.87406500;9.59633600;2023-02-24T04:42:41;94418.78;;;8.39;100.00
2000;BME280;1001;48.87406500;9.59633600;2023-02-24T04:45:12;94420.59;;;8.38;100.00
2000;BME280;1001;48.87406500;9.59633600;2023-02-24T04:47:40;94414.00;;;8.47;100.00
2000;BME280;1001;48.87406500;9.59633600;2023-02-24T04:50:10;94403.63;;;8.36;100.00
2000;BME280;1001;48.87406500;9.59633600;2023-02-24T04:52:50;94407.66;;;8.43;100.00
2000;BME280;1001;48.87406500;9.59633600;2023-02-24T04:55:20;94403.06;;;8.34;100.00
2000;BME280;1001;48.87406500;9.59633600;2023-02-24T04:57:48;94400.69;;;8.32;100.00
2000;BME280;1001;48.87406500;9.59633600;2023-02-24T05:00:15;94403.97;;;8.39;100.00
2000;BME280;1001;48.87406500;9.59633600;2023-02-24T05:02:47;94394.34;;;8.40;100.00
2000;BME280;1001;48.87406500;9.59633600;2023-02-24T05:05:15;94392.75;;;8.39;100.00
2000;BME280;1001;48.87406500;9.59633600;2023-02-24T05:07:43;94390.84;;;8.34;100.00
2000;BME280;1001;48.87406500;9.59633600;2023-02-24T05:10:12;94387.69;;;8.32;100.00
2000;BME280;1001;48.87406500;9.59633600;2023-02-24T05:12:41;94384.03;;;8.33;100.00
2000;BME280;1001;48.87406500;9.59633600;2023-02-24T05:15:09;94384.28;;;8.32;100.00
2000;BME280;1001;48.87406500;9.59633600;2023-02-24T05:17:37;94382.00;;;8.35;100.00
2000;BME280;1001;48.87406500;9.59633600;2023-02-24T05:20:06;94383.03;;;8.34;100.00
2000;BME280;1001;48.87406500;9.59633600;2023-02-24T05:22:50;94373.16;;;8.36;100.00
2000;BME280;1001;48.87406500;9.59633600;2023-02-24T05:25:17;94368.50;;;8.38;100.00
2000;BME280;1001;48.87406500;9.59633600;2023-02-24T05:27:46;94360.59;;;8.33;100.00
2000;BME280;1001;48.87406500;9.59633600;2023-02-24T05:30:13;94362.94;;;8.46;100.00
2000;BME280;1001;48.87406500;9.59633600;2023-02-24T05:32:40;94363.56;;;8.53;100.00
2000;BME280;1001;48.87406500;9.59633600;2023-02-24T05:35:07;94356.72;;;8.36;100.00
2000;BME280;1001;48.87406500;9.59633600;2023-02-24T05:37:37;94359.44;;;8.41;100.00
2000;BME280;1001;48.87406500;9.59633600;2023-02-24T05:40:07;94363.38;;;8.43;100.00
2000;BME280;1001;48.87406500;9.59633600;2023-02-24T05:42:37;94358.50;;;8.47;100.00
2000;BME280;1001;48.87406500;9.59633600;2023-02-24T05:45:07;94347.06;;;8.48;100.00
2000;BME280;1001;48.87406500;9.59633600;2023-02-24T05:47:35;94349.19;;;8.51;100.00
2000;BME280;1001;48.87406500;9.59633600;2023-02-24T05:50:02;94346.59;;;8.51;100.00
2000;BME280;1001;48.87406500;9.59633600;2023-02-24T05:52:28;94340.53;;;8.62;100.00
2000;BME280;1001;48.87406500;9.59633600;2023-02-24T05:54:55;94349.50;;;8.54;100.00
2000;BME280;1001;48.87406500;9.59633600;2023-02-24T05:57:21;94347.84;;;8.48;100.00
2000;BME280;1001;48.87406500;9.59633600;2023-02-24T05:59:50;94336.78;;;8.41;100.00
2000;BME280;1001;48.87406500;9.59633600;2023-02-24T06:02:21;94343.66;;;8.47;100.00
2000;BME280;1001;48.87406500;9.59633600;2023-02-24T06:04:52;94335.06;;;8.47;100.00
2000;BME280;1001;48.87406500;9.59633600;2023-02-24T06:07:21;94339.56;;;8.51;100.00
2000;BME280;1001;48.87406500;9.59633600;2023-02-24T06:09:51;94337.97;;;8.50;100.00
2000;BME280;1001;48.87406500;9.59633600;2023-02-24T06:12:19;94337.53;;;8.53;100.00
2000;BME280;1001;48.87406500;9.59633600;2023-02-24T06:14:47;94330.16;;;8.50;100.00
2000;BME280;1001;48.87406500;9.59633600;2023-02-24T06:17:14;94328.81;;;8.48;100.00
2000;BME280;1001;48.87406500;9.59633600;2023-02-24T06:19:44;94328.81;;;8.48;100.00
2000;BME280;1001;48.87406500;9.59633600;2023-02-24T06:22:12;94324.84;;;8.45;100.00
2000;BME280;1001;48.87406500;9.59633600;2023-02-24T06:24:39;94331.31;;;8.43;100.00
2000;BME280;1001;48.87406500;9.59633600;2023-02-24T06:27:09;94329.75;;;8.42;100.00
2000;BME280;1001;48.87406500;9.59633600;2023-02-24T06:29:42;94319.34;;;8.42;100.00
2000;BME280;1001;48.87406500;9.59633600;2023-02-24T06:32:09;94324.66;;;8.47;100.00
2000;BME280;1001;48.87406500;9.59633600;2023-02-24T06:34:38;94326.91;;;8.43;100.00
2000;BME280;1001;48.87406500;9.59633600;2023-02-24T06:37:07;94324.16;;;8.50;100.00
2000;BME280;1001;48.87406500;9.59633600;2023-02-24T06:39:33;94320.78;;;8.49;100.00
2000;BME280;1001;48.87406500;9.59633600;2023-02-24T06:42:00;94318.47;;;8.53;100.00
2000;BME280;1001;48.87406500;9.59633600;2023-02-24T06:44:29;94318.19;;;8.49;100.00
2000;BME280;1001;48.87406500;9.59633600;2023-02-24T06:46:55;94321.19;;;8.58;100.00
2000;BME280;1001;48.87406500;9.59633600;2023-02-24T06:49:22;94324.34;;;8.60;100.00
2000;BME280;1001;48.87406500;9.59633600;2023-02-24T06:51:49;94319.69;;;8.62;100.00
2000;BME280;1001;48.87406500;9.59633600;2023-02-24T06:54:17;94313.66;;;8.61;100.00
2000;BME280;1001;48.87406500;9.59633600;2023-02-24T06:56:44;94307.34;;;8.57;100.00
2000;BME280;1001;48.87406500;9.59633600;2023-02-24T06:59:12;94313.19;;;8.48;100.00
2000;BME280;1001;48.87406500;9.59633600;2023-02-24T07:01:46;94315.63;;;8.54;100.00
2000;BME280;1001;48.87406500;9.59633600;2023-02-24T07:04:13;94314.16;;;8.58;100.00
2000;BME280;1001;48.87406500;9.59633600;2023-02-24T07:06:47;94311.84;;;8.45;100.00
2000;BME280;1001;48.87406500;9.59633600;2023-02-24T07:09:19;94311.28;;;8.43;100.00
2000;BME280;1001;48.87406500;9.59633600;2023-02-24T07:11:47;94320.91;;;8.43;100.00
2000;BME280;1001;48.87406500;9.59633600;2023-02-24T07:14:17;94314.34;;;8.40;100.00
2000;BME280;1001;48.87406500;9.59633600;2023-02-24T07:16:45;94316.75;;;8.42;100.00
2000;BME280;1001;48.87406500;9.59633600;2023-02-24T07:19:16;94316.88;;;8.35;100.00
2000;BME280;1001;48.87406500;9.59633600;2023-02-24T07:21:44;94313.00;;;8.38;100.00
2000;BME280;1001;48.87406500;9.59633600;2023-02-24T07:24:15;94310.09;;;8.34;100.00
2000;BME280;1001;48.87406500;9.59633600;2023-02-24T07:26:54;94308.19;;;8.30;100.00
2000;BME280;1001;48.87406500;9.59633600;2023-02-24T07:29:22;94302.19;;;8.29;100.00
2000;BME280;1001;48.87406500;9.59633600;2023-02-24T07:31:49;94293.19;;;8.37;100.00
2000;BME280;1001;48.87406500;9.59633600;2023-02-24T07:34:20;94295.47;;;8.33;100.00
2000;BME280;1001;48.87406500;9.59633600;2023-02-24T07:36:49;94294.81;;;8.26;100.00
2000;BME280;1001;48.87406500;9.59633600;2023-02-24T07:39:16;94287.81;;;8.27;100.00
2000;BME280;1001;48.87406500;9.59633600;2023-02-24T07:41:43;94287.19;;;8.36;100.00
2000;BME280;1001;48.87406500;9.59633600;2023-02-24T07:44:15;94286.66;;;8.34;100.00
2000;BME280;1001;48.87406500;9.59633600;2023-02-24T07:46:43;94292.25;;;8.43;100.00
2000;BME280;1001;48.87406500;9.59633600;2023-02-24T07:49:12;94289.50;;;8.33;100.00
2000;BME280;1001;48.87406500;9.59633600;2023-02-24T07:51:40;94292.66;;;8.35;100.00
2000;BME280;1001;48.87406500;9.59633600;2023-02-24T07:54:07;94292.09;;;8.21;100.00
2000;BME280;1001;48.87406500;9.59633600;2023-02-24T07:56:36;94285.63;;;8.23;100.00
2000;BME280;1001;48.87406500;9.59633600;2023-02-24T07:59:11;94286.88;;;8.33;100.00
2000;BME280;1001;48.87406500;9.59633600;2023-02-24T08:01:41;94282.03;;;8.24;100.00
2000;BME280;1001;48.87406500;9.59633600;2023-02-24T08:04:15;94288.25;;;8.23;100.00
2000;BME280;1001;48.87406500;9.59633600;2023-02-24T08:06:42;94282.00;;;8.36;100.00
2000;BME280;1001;48.87406500;9.59633600;2023-02-24T08:09:11;94283.25;;;8.34;100.00
2000;BME280;1001;48.87406500;9.59633600;2023-02-24T08:11:43;94273.19;;;8.26;100.00
2000;BME280;1001;48.87406500;9.59633600;2023-02-24T08:14:11;94271.75;;;8.18;100.00
2000;BME280;1001;48.87406500;9.59633600;2023-02-24T08:16:41;94274.91;;;8.20;100.00
2000;BME280;1001;48.87406500;9.59633600;2023-02-24T08:19:09;94275.47;;;8.22;100.00
2000;BME280;1001;48.87406500;9.59633600;2023-02-24T08:21:38;94266.63;;;8.23;100.00
2000;BME280;1001;48.87406500;9.59633600;2023-02-24T08:24:06;94263.00;;;8.24;100.00
2000;BME280;1001;48.87406500;9.59633600;2023-02-24T08:26:42;94262.03;;;8.13;100.00
2000;BME280;1001;48.87406500;9.59633600;2023-02-24T08:29:09;94261.09;;;8.19;100.00
2000;BME280;1001;48.87406500;9.59633600;2023-02-24T08:31:36;94259.16;;;8.27;100.00
2000;BME280;1001;48.87406500;9.59633600;2023-02-24T08:34:03;94257.66;;;8.31;100.00
2000;BME280;1001;48.87406500;9.59633600;2023-02-24T08:36:30;94251.06;;;8.11;100.00
2000;BME280;1001;48.87406500;9.59633600;2023-02-24T08:38:57;94257.13;;;8.17;100.00
2000;BME280;1001;48.87406500;9.59633600;2023-02-24T08:41:25;94252.19;;;8.15;100.00
2000;BME280;1001;48.87406500;9.59633600;2023-02-24T08:44:10;94260.25;;;8.31;100.00
2000;BME280;1001;48.87406500;9.59633600;2023-02-24T08:46:39;94254.28;;;8.30;100.00
2000;BME280;1001;48.87406500;9.59633600;2023-02-24T08:49:07;94248.03;;;8.31;100.00
2000;BME280;1001;48.87406500;9.59633600;2023-02-24T08:51:36;94245.53;;;8.36;100.00
2000;BME280;1001;48.87406500;9.59633600;2023-02-24T08:54:09;94238.53;;;8.25;100.00
2000;BME280;1001;48.87406500;9.59633600;2023-02-24T08:56:40;94235.00;;;8.31;100.00
2000;BME280;1001;48.87406500;9.59633600;2023-02-24T08:59:10;94239.13;;;8.27;100.00
2000;BME280;1001;48.87406500;9.59633600;2023-02-24T09:01:54;94241.94;;;8.26;100.00
2000;BME280;1001;48.87406500;9.59633600;2023-02-24T09:04:42;94238.44;;;8.20;100.00
2000;BME280;1001;48.87406500;9.59633600;2023-02-24T09:07:12;94231.66;;;8.19;100.00
2000;BME280;1001;48.87406500;9.59633600;2023-02-24T09:09:39;94226.06;;;8.10;100.00
2000;BME280;1001;48.87406500;9.59633600;2023-02-24T09:12:06;94234.41;;;8.12;100.00
2000;BME280;1001;48.87406500;9.59633600;2023-02-24T09:14:34;94222.75;;;8.15;100.00
2000;BME280;1001;48.87406500;9.59633600;2023-02-24T09:17:03;94222.69;;;8.27;100.00
2000;BME280;1001;48.87406500;9.59633600;2023-02-24T09:19:37;94229.59;;;8.21;100.00
2000;BME280;1001;48.87406500;9.59633600;2023-02-24T09:22:21;94226.75;;;8.06;100.00
2000;BME280;1001;48.87406500;9.59633600;2023-02-24T09:24:59;94224.34;;;8.16;100.00
2000;BME280;1001;48.87406500;9.59633600;2023-02-24T09:27:47;94219.97;;;8.21;100.00
2000;BME280;1001;48.87406500;9.59633600;2023-02-24T09:30:18;94218.06;;;8.00;100.00
2000;BME280;1001;48.87406500;9.59633600;2023-02-24T09:33:05;94221.91;;;7.98;100.00
2000;BME280;1001;48.87406500;9.59633600;2023-02-24T09:35:33;94219.66;;;8.01;100.00
2000;BME280;1001;48.87406500;9.59633600;2023-02-24T09:38:03;94216.81;;;8.03;100.00
2000;BME280;1001;48.87406500;9.59633600;2023-02-24T09:40:31;94220.91;;;7.99;100.00
2000;BME280;1001;48.87406500;9.59633600;2023-02-24T09:43:07;94214.38;;;8.13;100.00
2000;BME280;1001;48.87406500;9.59633600;2023-02-24T09:45:54;94208.47;;;8.17;100.00
2000;BME280;1001;48.87406500;9.59633600;2023-02-24T09:48:30;94206.19;;;8.04;100.00
2000;BME280;1001;48.87406500;9.59633600;2023-02-24T09:51:09;94202.63;;;8.10;100.00
2000;BME280;1001;48.87406500;9.59633600;2023-02-24T09:53:47;94205.94;;;8.22;100.00
2000;BME280;1001;48.87406500;9.59633600;2023-02-24T09:56:19;94202.97;;;8.31;100.00
2000;BME280;1001;48.87406500;9.59633600;2023-02-24T09:58:52;94194.06;;;8.27;100.00
2000;BME280;1001;48.87406500;9.59633600;2023-02-24T10:01:30;94193.03;;;8.28;100.00
2000;BME280;1001;48.87406500;9.59633600;2023-02-24T10:04:02;94201.03;;;8.09;100.00
2000;BME280;1001;48.87406500;9.59633600;2023-02-24T10:06:38;94193.16;;;8.04;100.00
2000;BME280;1001;48.87406500;9.59633600;2023-02-24T10:09:12;94189.59;;;8.10;100.00
2000;BME280;1001;48.87406500;9.59633600;2023-02-24T10:11:47;94193.69;;;7.90;100.00
2000;BME280;1001;48.87406500;9.59633600;2023-02-24T10:14:24;94189.22;;;8.02;100.00
2000;BME280;1001;48.87406500;9.59633600;2023-02-24T10:16:54;94188.09;;;7.70;100.00
2000;BME280;1001;48.87406500;9.59633600;2023-02-24T10:19:35;94183.34;;;7.78;100.00
2000;BME280;1001;48.87406500;9.59633600;2023-02-24T10:22:12;94184.69;;;7.69;100.00
2000;BME280;1001;48.87406500;9.59633600;2023-02-24T10:24:56;94187.31;;;7.69;100.00
2000;BME280;1001;48.87406500;9.59633600;2023-02-24T10:27:40;94181.97;;;7.76;100.00
2000;BME280;1001;48.87406500;9.59633600;2023-02-24T10:30:27;94188.94;;;7.59;100.00
2000;BME280;1001;48.87406500;9.59633600;2023-02-24T10:33:14;94185.59;;;7.75;100.00
2000;BME280;1001;48.87406500;9.59633600;2023-02-24T10:35:42;94187.41;;;7.74;100.00
2000;BME280;1001;48.87406500;9.59633600;2023-02-24T10:38:09;94177.50;;;7.60;100.00
2000;BME280;1001;48.87406500;9.59633600;2023-02-24T10:40:45;94182.81;;;7.65;100.00
2000;BME280;1001;48.87406500;9.59633600;2023-02-24T10:43:16;94185.41;;;7.65;100.00
2000;BME280;1001;48.87406500;9.59633600;2023-02-24T10:45:44;94174.53;;;7.68;100.00
2000;BME280;1001;48.87406500;9.59633600;2023-02-24T10:48:19;94175.00;;;7.65;100.00
2000;BME280;1001;48.87406500;9.59633600;2023-02-24T10:50:51;94174.63;;;7.73;100.00
2000;BME280;1001;48.87406500;9.59633600;2023-02-24T10:53:21;94169.09;;;7.69;100.00
2000;BME280;1001;48.87406500;9.59633600;2023-02-24T10:56:02;94169.44;;;7.73;100.00
2000;BME280;1001;48.87406500;9.59633600;2023-02-24T10:59:00;94168.69;;;7.61;100.00
2000;BME280;1001;48.87406500;9.59633600;2023-02-24T11:01:41;94157.72;;;7.59;100.00
2000;BME280;1001;48.87406500;9.59633600;2023-02-24T11:04:20;94152.56;;;7.75;100.00
2000;BME280;1001;48.87406500;9.59633600;2023-02-24T11:07:11;94154.13;;;7.76;100.00
2000;BME280;1001;48.87406500;9.59633600;2023-02-24T11:09:49;94143.91;;;7.86;100.00
2000;BME280;1001;48.87406500;9.59633600;2023-02-24T11:12:37;94138.22;;;7.89;100.00
2000;BME280;1001;48.87406500;9.59633600;2023-02-24T11:15:28;94136.78;;;7.82;100.00
2000;BME280;1001;48.87406500;9.59633600;2023-02-24T11:18:16;94127.97;;;7.83;100.00
2000;BME280;1001;48.87406500;9.59633600;2023-02-24T11:20:46;94133.00;;;7.73;100.00
2000;BME280;1001;48.87406500;9.59633600;2023-02-24T11:23:16;94131.31;;;7.67;100.00
2000;BME280;1001;48.87406500;9.59633600;2023-02-24T11:25:46;94132.66;;;7.69;100.00
2000;BME280;1001;48.87406500;9.59633600;2023-02-24T11:28:31;94122.41;;;7.63;100.00
2000;BME280;1001;48.87406500;9.59633600;2023-02-24T11:31:12;94104.53;;;7.66;100.00
2000;BME280;1001;48.87406500;9.59633600;2023-02-24T11:33:45;94111.88;;;7.86;100.00
2000;BME280;1001;48.87406500;9.59633600;2023-02-24T11:36:20;94086.63;;;7.86;100.00
2000;BME280;1001;48.87406500;9.59633600;2023-02-24T11:38:58;94094.44;;;8.03;100.00
2000;BME280;1001;48.87406500;9.59633600;2023-02-24T11:41:30;94098.22;;;7.95;100.00
2000;BME280;1001;48.87406500;9.59633600;2023-02-24T11:44:04;94097.06;;;8.03;100.00
2000;BME280;1001;48.87406500;9.59633600;2023-02-24T11:46:37;94091.38;;;8.06;100.00
2000;BME280;1001;48.87406500;9.59633600;2023-02-24T11:49:15;94082.94;;;7.99;100.00
2000;BME280;1001;48.87406500;9.59633600;2023-02-24T11:51:45;94087.09;;;8.00;100.00
2000;BME280;1001;48.87406500;9.59633600;2023-02-24T11:54:14;94073.25;;;7.94;100.00
2000;BME280;1001;48.87406500;9.59633600;2023-02-24T11:56:44;94072.53;;;8.15;100.00
2000;BME280;1001;48.87406500;9.59633600;2023-02-24T11:59:17;94068.13;;;7.99;100.00
2000;BME280;1001;48.87406500;9.59633600;2023-02-24T12:01:49;94061.78;;;7.95;100.00
2000;BME280;1001;48.87406500;9.59633600;2023-02-24T12:04:21;94057.00;;;7.87;100.00
2000;BME280;1001;48.87406500;9.59633600;2023-02-24T12:06:51;94049.31;;;7.97;100.00
2000;BME280;1001;48.87406500;9.59633600;2023-02-24T12:09:25;94050.63;;;7.95;100.00
2000;BME280;1001;48.87406500;9.59633600;2023-02-24T12:11:57;94048.06;;;8.00;100.00
2000;BME280;1001;48.87406500;9.59633600;2023-02-24T12:14:33;94042.09;;;8.21;100.00